Big Bar, California
Current Conditions -  °F | °C
As of 12:15 AM on Monday 24 Nov 2014 (Local Time) from KO54 Reporting Station
NA  
Wind Chill: 36°   Ceiling: NA
Heat Index: 36°   Visibility: 1.2mi
Dew Point: 34°   Wind: 0mph
Humidity: 93%   Direction: NA
Pressure: 30.41"   Gusts: NA
Location:  40.74°N, 123.26°W
Report Text: KO54 240815Z AUTO 00000KT 1 1/4SM 02/01 A3041 RMK AO1
Loading
Personal Weather Stations






























Interactive Weather Map New forecast layout! Learn more

10-Day Weather Forecast

Advertisements
Track Severe Weather on mobile